Time;durP1;ratioP1;P1;durP2;ratioP2;P2;SDS_P1;SDS_P2;PMS_P1;PMS_P2;Temp;Humidity;BMP_temperature;BMP_pressure;BME280_temperature;BME280_humidity;BME280_pressure;Samples;Min_cycle;Max_cycle;Signal;HPM_P1;HPM_P2
2022/10/15 00:00:30;;;;;;;1999.90;999.90;;;;;;;10.15;100.00;98011.63;4955800;29;20071;-76
2022/10/15 00:02:55;;;;;;;1999.90;999.90;;;;;;;10.19;100.00;98023.59;4955653;29;20450;-75
2022/10/15 00:05:21;;;;;;;1999.90;999.90;;;;;;;10.11;100.00;98016.03;4952559;29;20035;-75
2022/10/15 00:07:46;;;;;;;1999.90;999.90;;;;;;;10.02;100.00;98024.03;4952466;29;20075;-76
2022/10/15 00:10:12;;;;;;;1999.90;999.90;;;;;;;9.92;100.00;98023.34;4952151;29;20844;-76
2022/10/15 00:12:38;;;;;;;1999.90;999.90;;;;;;;9.97;100.00;98028.75;4951878;29;20051;-76
2022/10/15 00:15:04;;;;;;;1999.90;999.90;;;;;;;10.02;100.00;98025.97;4951800;29;20378;-76
2022/10/15 00:17:31;;;;;;;1999.90;999.90;;;;;;;10.03;100.00;98019.38;4952221;28;20047;-75
2022/10/15 00:19:56;;;;;;;1999.90;999.90;;;;;;;10.28;100.00;98010.09;4952091;29;20028;-75
2022/10/15 00:22:22;;;;;;;1999.90;999.90;;;;;;;10.30;100.00;98025.13;4953334;28;20025;-75
2022/10/15 00:24:47;;;;;;;1999.90;999.90;;;;;;;10.38;100.00;98027.22;4955650;29;20366;-75
2022/10/15 00:27:12;;;;;;;1999.90;999.90;;;;;;;10.39;100.00;98022.56;4955942;28;20047;-75
2022/10/15 00:29:38;;;;;;;1999.90;999.90;;;;;;;10.45;100.00;98029.59;4955592;28;20036;-76
2022/10/15 00:32:03;;;;;;;1999.90;999.90;;;;;;;10.48;100.00;98018.88;4955491;29;20031;-76
2022/10/15 00:34:30;;;;;;;1999.90;999.90;;;;;;;10.51;100.00;98001.88;4955464;29;20137;-76
2022/10/15 00:36:55;;;;;;;1999.90;999.90;;;;;;;10.67;100.00;98008.78;4955269;29;20031;-76
2022/10/15 00:39:21;;;;;;;1999.90;999.90;;;;;;;10.77;100.00;98010.56;4954767;29;20027;-75
2022/10/15 00:41:46;;;;;;;1999.90;999.90;;;;;;;10.82;100.00;98007.75;4954179;28;20039;-75
2022/10/15 00:44:50;;;;;;;1999.90;999.90;;;;;;;10.89;100.00;98008.19;4954680;29;20143;-75
2022/10/15 00:47:22;;;;;;;1999.90;999.90;;;;;;;10.90;100.00;98001.59;4955116;28;20070;-75
2022/10/15 00:50:09;;;;;;;1999.90;999.90;;;;;;;10.99;100.00;97993.56;4954677;29;20481;-74
2022/10/15 00:53:13;;;;;;;1999.90;999.90;;;;;;;10.84;100.00;97982.84;4954455;28;20031;-74
2022/10/15 00:55:41;;;;;;;1999.90;999.90;;;;;;;10.95;100.00;97976.09;4991085;28;20542;-75
2022/10/15 00:58:11;;;;;;;1999.90;999.90;;;;;;;10.73;100.00;97971.22;4991466;28;20133;-77
2022/10/15 01:00:37;;;;;;;1999.90;999.90;;;;;;;10.77;100.00;97963.25;4976215;28;20058;-76
2022/10/15 01:03:02;;;;;;;1999.90;999.90;;;;;;;10.77;100.00;97953.91;4973873;28;20113;-76
2022/10/15 01:05:28;;;;;;;1999.90;999.90;;;;;;;10.65;100.00;97953.53;4965566;28;20128;-76
2022/10/15 01:07:53;;;;;;;1999.90;999.90;;;;;;;10.59;100.00;97957.47;4954857;28;20106;-77
2022/10/15 01:10:20;;;;;;;1999.90;999.90;;;;;;;10.61;100.00;97962.66;4954718;28;20059;-77
2022/10/15 01:13:12;;;;;;;1999.90;999.90;;;;;;;10.61;100.00;97968.94;4954420;28;20505;-76
2022/10/15 01:15:37;;;;;;;1999.90;999.90;;;;;;;10.56;100.00;97963.53;4960406;28;20134;-76
2022/10/15 01:18:11;;;;;;;1999.90;999.90;;;;;;;10.47;100.00;97964.47;4965648;28;20169;-76
2022/10/15 01:20:50;;;;;;;1999.90;999.90;;;;;;;10.49;100.00;97957.63;4973655;28;20035;-76
2022/10/15 01:24:01;;;;;;;1999.90;999.90;;;;;;;10.49;100.00;97952.16;4980640;28;20061;-76
2022/10/15 01:26:35;;;;;;;1999.90;999.90;;;;;;;10.39;100.00;97954.19;4992826;28;20046;-76
2022/10/15 01:29:20;;;;;;;1999.90;999.90;;;;;;;10.29;100.00;97957.88;4992993;28;20022;-75
2022/10/15 01:32:02;;;;;;;1999.90;999.90;;;;;;;10.27;100.00;97957.38;4992931;28;20038;-77
2022/10/15 01:34:51;;;;;;;1999.90;999.90;;;;;;;10.26;100.00;97953.00;4991933;28;20074;-76
2022/10/15 01:37:35;;;;;;;1999.90;999.90;;;;;;;10.19;100.00;97952.53;4993698;28;20031;-77
2022/10/15 01:40:07;;;;;;;1999.90;999.90;;;;;;;10.13;100.00;97942.75;4999826;28;20087;-77
2022/10/15 01:42:40;;;;;;;1999.90;999.90;;;;;;;10.16;100.00;97937.53;4993937;28;20073;-76
2022/10/15 01:45:11;;;;;;;1999.90;999.90;;;;;;;10.23;100.00;97936.38;4992518;28;20034;-76
2022/10/15 01:47:45;;;;;;;1999.90;999.90;;;;;;;10.09;100.00;97933.50;4992580;28;20072;-73
2022/10/15 01:50:13;;;;;;;1999.90;999.90;;;;;;;10.05;100.00;97927.00;4992361;28;20088;-77
2022/10/15 01:52:41;;;;;;;1999.90;999.90;;;;;;;10.10;100.00;97927.75;4992597;28;20026;-76
2022/10/15 01:55:10;;;;;;;1999.90;999.90;;;;;;;10.02;100.00;97925.66;4976476;28;20023;-73
2022/10/15 01:57:37;;;;;;;1999.90;999.90;;;;;;;10.08;100.00;97920.97;4972930;28;20023;-74
2022/10/15 02:00:03;;;;;;;1999.90;999.90;;;;;;;10.07;100.00;97924.78;4973043;28;20041;-74
2022/10/15 02:02:29;;;;;;;1999.90;999.90;;;;;;;10.14;100.00;97917.09;4972954;28;20031;-74
2022/10/15 02:04:54;;;;;;;1999.90;999.90;;;;;;;10.23;100.00;97909.84;4972975;28;20089;-74
2022/10/15 02:07:26;;;;;;;1999.90;999.90;;;;;;;10.14;100.00;97912.44;4972417;28;20043;-76
2022/10/15 02:10:20;;;;;;;1999.90;999.90;;;;;;;10.11;100.00;97912.19;4973031;28;20039;-76
2022/10/15 02:13:10;;;;;;;1999.90;999.90;;;;;;;10.12;100.00;97911.06;4973357;28;20467;-75
2022/10/15 02:15:58;;;;;;;1999.90;999.90;;;;;;;10.09;100.00;97919.84;4973393;28;20424;-73
2022/10/15 02:18:34;;;;;;;1999.90;999.90;;;;;;;10.22;100.00;97916.41;4972799;28;20104;-74
2022/10/15 02:21:13;;;;;;;1999.90;999.90;;;;;;;10.31;100.00;97917.38;4972614;28;20093;-75
2022/10/15 02:23:57;;;;;;;1999.90;999.90;;;;;;;10.34;100.00;97922.25;4986780;28;20357;-75
2022/10/15 02:26:25;;;;;;;1999.90;999.90;;;;;;;10.31;100.00;97922.03;4991440;28;20041;-75
2022/10/15 02:28:54;;;;;;;1999.90;999.90;;;;;;;10.36;100.00;97927.44;4991712;28;20037;-75
2022/10/15 02:31:21;;;;;;;1999.90;999.90;;;;;;;10.39;100.00;97924.94;4992169;28;20038;-75
2022/10/15 02:33:50;;;;;;;1999.90;999.90;;;;;;;10.48;100.00;97920.44;4991824;28;20038;-76
2022/10/15 02:36:17;;;;;;;1999.90;999.90;;;;;;;10.32;100.00;97913.56;4994981;28;20045;-75
2022/10/15 02:38:44;;;;;;;1999.90;999.90;;;;;;;10.25;100.00;97901.34;4994977;28;20034;-76
2022/10/15 02:41:11;;;;;;;1999.90;999.90;;;;;;;10.27;100.00;97890.94;4993802;28;20034;-74
2022/10/15 02:43:37;;;;;;;1999.90;999.90;;;;;;;10.30;100.00;97877.50;4991741;28;20089;-74
2022/10/15 02:46:04;;;;;;;1999.90;999.90;;;;;;;10.22;100.00;97891.81;4976603;28;20403;-74
2022/10/15 02:48:29;;;;;;;1999.90;999.90;;;;;;;10.12;100.00;97894.66;4968728;28;20023;-74
2022/10/15 02:50:55;;;;;;;1999.90;999.90;;;;;;;10.19;100.00;97893.22;4972234;28;20366;-74
2022/10/15 02:53:20;;;;;;;1999.90;999.90;;;;;;;10.14;100.00;97890.56;4953621;28;20027;-74
2022/10/15 02:55:45;;;;;;;1999.90;999.90;;;;;;;10.22;100.00;97886.34;4952674;29;20027;-74
2022/10/15 02:58:11;;;;;;;1999.90;999.90;;;;;;;10.28;100.00;97885.16;4952482;29;20063;-75
2022/10/15 03:00:37;;;;;;;1999.90;999.90;;;;;;;10.25;100.00;97880.28;4952590;29;20059;-74
2022/10/15 03:03:02;;;;;;;1999.90;999.90;;;;;;;10.27;100.00;97883.56;4952667;29;20177;-75
2022/10/15 03:05:27;;;;;;;1999.90;999.90;;;;;;;10.20;100.00;97878.47;4954053;28;20106;-75
2022/10/15 03:07:53;;;;;;;1999.90;999.90;;;;;;;10.16;100.00;97876.59;4953723;28;20062;-75
2022/10/15 03:10:19;;;;;;;1999.90;999.90;;;;;;;10.18;100.00;97877.09;4954254;28;20039;-75
2022/10/15 03:12:44;;;;;;;1999.90;999.90;;;;;;;10.17;100.00;97880.97;4953675;28;20066;-75
2022/10/15 03:15:10;;;;;;;1999.90;999.90;;;;;;;10.13;100.00;97874.41;4952368;28;20040;-74
2022/10/15 03:17:35;;;;;;;1999.90;999.90;;;;;;;10.04;100.00;97873.47;4952390;28;20512;-74
2022/10/15 03:20:01;;;;;;;1999.90;999.90;;;;;;;10.13;100.00;97879.88;4952356;28;20038;-75
2022/10/15 03:22:26;;;;;;;1999.90;999.90;;;;;;;10.12;100.00;97879.06;4952071;28;20056;-75
2022/10/15 03:24:51;;;;;;;1999.90;999.90;;;;;;;10.19;100.00;97881.47;4952358;28;20456;-74
2022/10/15 03:27:17;;;;;;;1999.90;999.90;;;;;;;10.18;100.00;97871.63;4955072;28;20539;-75
2022/10/15 03:29:42;;;;;;;1999.90;999.90;;;;;;;10.32;100.00;97875.28;4956489;28;20437;-74
2022/10/15 03:32:07;;;;;;;1999.90;999.90;;;;;;;10.25;100.00;97885.75;4954071;29;20039;-76
2022/10/15 03:34:33;;;;;;;1999.90;999.90;;;;;;;10.34;100.00;97888.66;4952538;28;20046;-76
2022/10/15 03:36:58;;;;;;;1999.90;999.90;;;;;;;10.33;100.00;97884.31;4952262;28;20023;-76
2022/10/15 03:39:23;;;;;;;1999.90;999.90;;;;;;;10.38;100.00;97887.75;4960690;28;20026;-75
2022/10/15 03:41:52;;;;;;;1999.90;999.90;;;;;;;10.46;100.00;97878.09;4975035;28;20053;-75
2022/10/15 03:44:17;;;;;;;1999.90;999.90;;;;;;;10.39;100.00;97886.66;4971620;28;20038;-74
2022/10/15 03:46:43;;;;;;;1999.90;999.90;;;;;;;10.43;100.00;97889.63;4971447;28;20045;-75
2022/10/15 03:49:08;;;;;;;1999.90;999.90;;;;;;;10.39;100.00;97883.13;4973763;28;20039;-76
2022/10/15 03:51:33;;;;;;;1999.90;999.90;;;;;;;10.40;100.00;97893.75;4980205;28;20030;-75
2022/10/15 03:53:59;;;;;;;1999.90;999.90;;;;;;;10.50;100.00;97885.41;4972074;28;20027;-75
2022/10/15 03:56:24;;;;;;;1999.90;999.90;;;;;;;10.48;100.00;97887.63;4971106;28;20027;-74
2022/10/15 03:58:49;;;;;;;1999.90;999.90;;;;;;;10.56;100.00;97886.94;4975016;28;20031;-74
2022/10/15 04:01:16;;;;;;;1999.90;999.90;;;;;;;10.59;100.00;97883.59;4974880;28;20456;-74
2022/10/15 04:03:42;;;;;;;1999.90;999.90;;;;;;;10.57;100.00;97882.28;4973762;28;20481;-75
2022/10/15 04:06:08;;;;;;;1999.90;999.90;;;;;;;10.60;100.00;97896.19;4975036;28;20030;-75
2022/10/15 04:08:33;;;;;;;1999.90;999.90;;;;;;;10.60;100.00;97889.91;4974863;28;20050;-75
2022/10/15 04:10:58;;;;;;;1999.90;999.90;;;;;;;10.56;100.00;97892.41;4974707;28;20051;-75
2022/10/15 04:13:25;;;;;;;1999.90;999.90;;;;;;;10.53;100.00;97887.53;4975156;28;20083;-75
2022/10/15 04:15:50;;;;;;;1999.90;999.90;;;;;;;10.56;100.00;97886.94;4982377;28;20053;-75
2022/10/15 04:18:16;;;;;;;1999.90;999.90;;;;;;;10.60;100.00;97884.44;4993810;28;20068;-75
2022/10/15 04:20:41;;;;;;;1999.90;999.90;;;;;;;10.63;100.00;97881.91;4994343;28;20345;-75
2022/10/15 04:23:08;;;;;;;1999.90;999.90;;;;;;;10.60;100.00;97876.22;4992811;28;20176;-75
2022/10/15 04:25:34;;;;;;;1999.90;999.90;;;;;;;10.53;100.00;97873.03;4993808;28;20041;-74
2022/10/15 04:28:01;;;;;;;1999.90;999.90;;;;;;;10.50;100.00;97863.50;4993718;28;20472;-75
2022/10/15 04:30:26;;;;;;;1999.90;999.90;;;;;;;10.39;100.00;97866.72;4976755;28;20030;-74
2022/10/15 04:32:52;;;;;;;1999.90;999.90;;;;;;;10.39;100.00;97870.25;4974474;28;20031;-75
2022/10/15 04:35:17;;;;;;;1999.90;999.90;;;;;;;10.38;100.00;97863.16;4974283;28;20023;-75
2022/10/15 04:37:42;;;;;;;1999.90;999.90;;;;;;;10.35;100.00;97857.47;4974501;28;20030;-75
2022/10/15 04:40:08;;;;;;;1999.90;999.90;;;;;;;10.33;100.00;97865.16;4974775;28;20037;-75
2022/10/15 04:42:34;;;;;;;1999.90;999.90;;;;;;;10.36;100.00;97861.84;4974598;28;20374;-75
2022/10/15 04:44:59;;;;;;;1999.90;999.90;;;;;;;10.41;100.00;97868.03;4974185;28;20042;-74
2022/10/15 04:47:24;;;;;;;1999.90;999.90;;;;;;;10.59;100.00;97864.47;4974384;28;20035;-75
2022/10/15 04:49:50;;;;;;;1999.90;999.90;;;;;;;10.66;100.00;97875.03;4974458;28;20026;-74
2022/10/15 04:52:15;;;;;;;1999.90;999.90;;;;;;;10.72;100.00;97863.72;4974194;28;20023;-74
2022/10/15 04:54:40;;;;;;;1999.90;999.90;;;;;;;10.64;100.00;97867.13;4974100;28;20054;-75
2022/10/15 04:57:06;;;;;;;1999.90;999.90;;;;;;;10.66;100.00;97864.91;4973994;28;20394;-75
2022/10/15 04:59:32;;;;;;;1999.90;999.90;;;;;;;10.64;100.00;97858.13;4974083;28;20493;-75
2022/10/15 05:01:57;;;;;;;1999.90;999.90;;;;;;;10.65;100.00;97855.06;4974272;28;20603;-75
2022/10/15 05:04:22;;;;;;;1999.90;999.90;;;;;;;10.65;100.00;97855.06;4974295;28;20219;-75
2022/10/15 05:06:48;;;;;;;1999.90;999.90;;;;;;;10.71;100.00;97850.34;4974034;28;20042;-75
2022/10/15 05:09:13;;;;;;;1999.90;999.90;;;;;;;10.63;100.00;97860.03;4972943;28;20049;-75
2022/10/15 05:11:38;;;;;;;1999.90;999.90;;;;;;;10.63;100.00;97864.69;4974208;28;20416;-74
2022/10/15 05:14:05;;;;;;;1999.90;999.90;;;;;;;10.68;100.00;97868.16;4974141;28;20383;-75
2022/10/15 05:16:31;;;;;;;1999.90;999.90;;;;;;;10.77;100.00;97864.75;4973908;28;20038;-75
2022/10/15 05:19:06;;;;;;;1999.90;999.90;;;;;;;10.83;100.00;97869.03;4974084;28;20421;-75
2022/10/15 05:21:33;;;;;;;1999.90;999.90;;;;;;;10.84;100.00;97873.41;4973923;28;20823;-74
2022/10/15 05:23:59;;;;;;;1999.90;999.90;;;;;;;10.83;100.00;97882.72;4973704;28;20039;-75
2022/10/15 05:26:27;;;;;;;1999.90;999.90;;;;;;;10.84;100.00;97882.38;4973949;28;20089;-74
2022/10/15 05:28:55;;;;;;;1999.90;999.90;;;;;;;10.75;100.00;97868.59;4972878;28;20065;-75
2022/10/15 05:31:21;;;;;;;1999.90;999.90;;;;;;;10.80;100.00;97872.38;4973954;28;20023;-75
2022/10/15 05:33:48;;;;;;;1999.90;999.90;;;;;;;10.65;100.00;97867.97;4974216;28;20050;-75
2022/10/15 05:36:17;;;;;;;1999.90;999.90;;;;;;;10.66;100.00;97875.03;4973692;28;20054;-74
2022/10/15 05:38:51;;;;;;;1999.90;999.90;;;;;;;10.74;100.00;97877.91;4973688;28;20081;-74
2022/10/15 05:41:17;;;;;;;1999.90;999.90;;;;;;;10.74;100.00;97871.63;4974203;28;20031;-74
2022/10/15 05:43:46;;;;;;;1999.90;999.90;;;;;;;10.77;100.00;97871.81;4973626;28;20058;-74
2022/10/15 05:46:11;;;;;;;1999.90;999.90;;;;;;;10.86;100.00;97868.44;4973601;28;20089;-75
2022/10/15 05:48:37;;;;;;;1999.90;999.90;;;;;;;10.87;100.00;97875.53;4973609;28;20480;-74
2022/10/15 05:51:09;;;;;;;1999.90;999.90;;;;;;;10.85;100.00;97875.81;4973439;28;20054;-75
2022/10/15 05:53:35;;;;;;;1999.90;999.90;;;;;;;10.95;100.00;97874.84;4973257;28;20082;-74
2022/10/15 05:56:00;;;;;;;1999.90;999.90;;;;;;;10.96;100.00;97882.75;4973115;28;20416;-73
2022/10/15 05:58:27;;;;;;;1999.90;999.90;;;;;;;10.92;100.00;97883.66;4974150;28;20773;-76
2022/10/15 06:00:54;;;;;;;1999.90;999.90;;;;;;;10.88;100.00;97883.44;4981496;28;20026;-75
2022/10/15 06:03:19;;;;;;;1999.90;999.90;;;;;;;10.87;100.00;97881.78;4999234;28;20480;-74
2022/10/15 06:05:45;;;;;;;1999.90;999.90;;;;;;;10.85;100.00;97885.94;4993060;28;20114;-76
2022/10/15 06:08:10;;;;;;;1999.90;999.90;;;;;;;10.94;100.00;97893.19;4992712;28;20448;-75
2022/10/15 06:10:36;;;;;;;1999.90;999.90;;;;;;;11.02;100.00;97899.91;4992857;28;20452;-75
2022/10/15 06:13:03;;;;;;;1999.90;999.90;;;;;;;11.08;100.00;97893.22;4992634;28;20026;-75
2022/10/15 06:15:28;;;;;;;1999.90;999.90;;;;;;;11.12;100.00;97899.75;4992326;28;20137;-75
2022/10/15 06:17:53;;;;;;;1999.90;999.90;;;;;;;11.14;100.00;97900.25;4991035;28;20038;-75
2022/10/15 06:20:20;;;;;;;1999.90;999.90;;;;;;;11.14;100.00;97909.28;4991780;28;20029;-74
2022/10/15 06:22:45;;;;;;;1999.90;999.90;;;;;;;11.13;100.00;97915.03;4992161;28;20026;-74
2022/10/15 06:25:11;;;;;;;1999.90;999.90;;;;;;;11.13;100.00;97917.78;4992280;28;20079;-74
2022/10/15 06:27:36;;;;;;;1999.90;999.90;;;;;;;11.13;100.00;97913.09;4992309;28;20026;-75
2022/10/15 06:30:02;;;;;;;1999.90;999.90;;;;;;;11.08;100.00;97915.94;4992097;28;20523;-75
2022/10/15 06:32:27;;;;;;;1999.90;999.90;;;;;;;11.03;100.00;97904.25;4992050;28;20026;-75
2022/10/15 06:34:53;;;;;;;1999.90;999.90;;;;;;;11.03;100.00;97906.97;4991785;28;20019;-75
2022/10/15 06:37:18;;;;;;;1999.90;999.90;;;;;;;10.96;100.00;97903.84;4966222;28;20030;-75
2022/10/15 06:39:45;;;;;;;1999.90;999.90;;;;;;;10.97;100.00;97908.19;4953472;29;20074;-75
2022/10/15 06:42:11;;;;;;;1999.90;999.90;;;;;;;11.00;100.00;97907.59;4961053;28;20058;-76
2022/10/15 06:44:36;;;;;;;1999.90;999.90;;;;;;;11.05;100.00;97916.53;4970848;28;20531;-75
2022/10/15 06:47:02;;;;;;;1999.90;999.90;;;;;;;11.06;100.00;97920.06;4972226;28;20023;-75
2022/10/15 06:49:27;;;;;;;1999.90;999.90;;;;;;;11.03;100.00;97920.66;4971968;28;20385;-75
2022/10/15 06:51:52;;;;;;;1999.90;999.90;;;;;;;11.07;100.00;97927.19;4972420;28;20070;-75
2022/10/15 06:54:18;;;;;;;1999.90;999.90;;;;;;;11.02;100.00;97916.31;4965582;28;20141;-76
2022/10/15 06:56:44;;;;;;;1999.90;999.90;;;;;;;11.12;100.00;97924.38;4956905;29;20032;-73
2022/10/15 06:59:10;;;;;;;1999.90;999.90;;;;;;;11.04;100.00;97936.00;4955943;28;20035;-74
2022/10/15 07:01:35;;;;;;;1999.90;999.90;;;;;;;11.06;100.00;97917.34;4952565;28;20077;-74
2022/10/15 07:04:00;;;;;;;1999.90;999.90;;;;;;;11.14;100.00;97935.81;4952556;29;20040;-73
2022/10/15 07:06:25;;;;;;;1999.90;999.90;;;;;;;11.16;100.00;97933.59;4952343;29;20027;-73
2022/10/15 07:08:51;;;;;;;1999.90;999.90;;;;;;;11.18;100.00;97936.88;4953253;29;20401;-74
2022/10/15 07:11:17;;;;;;;1999.90;999.90;;;;;;;11.21;100.00;97936.25;4952920;28;20031;-75
2022/10/15 07:13:43;;;;;;;1999.90;999.90;;;;;;;11.16;100.00;97931.69;4952517;29;20032;-73
2022/10/15 07:16:09;;;;;;;1999.90;999.90;;;;;;;11.00;100.00;97935.78;4952307;29;20497;-73
2022/10/15 07:18:35;;;;;;;1999.90;999.90;;;;;;;11.01;100.00;97931.13;4952531;29;20043;-74
2022/10/15 07:21:02;;;;;;;1999.90;999.90;;;;;;;11.08;100.00;97926.06;4955751;29;20481;-74
2022/10/15 07:23:28;;;;;;;1999.90;999.90;;;;;;;11.21;100.00;97941.75;4978783;28;20097;-74
2022/10/15 07:25:56;;;;;;;1999.90;999.90;;;;;;;11.09;100.00;97925.75;4983939;28;20054;-74
2022/10/15 07:28:21;;;;;;;1999.90;999.90;;;;;;;11.22;100.00;97937.88;4978203;28;20742;-74
2022/10/15 07:30:46;;;;;;;1999.90;999.90;;;;;;;11.25;100.00;97931.78;4980082;28;20018;-74
2022/10/15 07:33:12;;;;;;;1999.90;999.90;;;;;;;11.35;100.00;97942.56;4980291;28;20038;-73
2022/10/15 07:35:37;;;;;;;1999.90;999.90;;;;;;;11.41;100.00;97940.56;4979709;28;20061;-74
2022/10/15 07:38:03;;;;;;;1999.90;999.90;;;;;;;11.40;100.00;97944.44;4980076;28;20034;-73
2022/10/15 07:40:28;;;;;;;1999.90;999.90;;;;;;;11.48;100.00;97952.75;4991313;28;20487;-75
2022/10/15 07:42:58;;;;;;;1999.90;999.90;;;;;;;11.54;100.00;97940.59;4991033;28;20038;-75
2022/10/15 07:45:24;;;;;;;1999.90;999.90;;;;;;;11.36;100.00;97938.72;4990812;28;20026;-74
2022/10/15 07:47:50;;;;;;;1999.90;999.90;;;;;;;11.58;100.00;97943.53;4991305;28;20083;-75
2022/10/15 07:50:15;;;;;;;1999.90;999.90;;;;;;;11.67;100.00;97944.47;4990925;28;20108;-75
2022/10/15 07:52:41;;;;;;;1999.90;999.90;;;;;;;11.77;100.00;97950.63;4990224;28;20483;-75
2022/10/15 07:55:07;;;;;;;1999.90;999.90;;;;;;;11.80;100.00;97950.00;4990587;28;20056;-74
2022/10/15 07:57:32;;;;;;;1999.90;999.90;;;;;;;11.89;100.00;97938.31;4990283;28;20058;-74
2022/10/15 07:59:57;;;;;;;1999.90;999.90;;;;;;;11.76;100.00;97926.25;4988215;28;20399;-74
2022/10/15 08:02:23;;;;;;;1999.90;999.90;;;;;;;11.89;100.00;97941.88;4990673;28;20034;-75
2022/10/15 08:04:48;;;;;;;1999.90;999.90;;;;;;;11.80;100.00;97930.81;4990678;28;20022;-75
2022/10/15 08:07:13;;;;;;;1999.90;999.90;;;;;;;11.85;100.00;97946.34;4990811;28;20424;-75
2022/10/15 08:09:39;;;;;;;1999.90;999.90;;;;;;;11.91;100.00;97950.59;4991265;28;20373;-74
2022/10/15 08:12:05;;;;;;;1999.90;999.90;;;;;;;11.91;100.00;97949.78;4998839;28;20034;-75
2022/10/15 08:14:34;;;;;;;1999.90;999.90;;;;;;;12.07;100.00;97953.84;4983176;28;20027;-75
2022/10/15 08:17:02;;;;;;;1999.90;999.90;;;;;;;12.38;100.00;97974.06;4985129;28;20085;-80
2022/10/15 08:19:28;;;;;;;1999.90;999.90;;;;;;;12.66;100.00;97972.06;4973098;28;20027;-75
2022/10/15 08:21:54;;;;;;;1999.90;999.90;;;;;;;12.88;100.00;97974.88;4979485;28;20027;-74
2022/10/15 08:24:19;;;;;;;1999.90;999.90;;;;;;;12.93;100.00;97969.28;4974319;28;20058;-76
2022/10/15 08:26:45;;;;;;;1999.90;999.90;;;;;;;12.84;100.00;97969.19;4973206;28;20043;-75
2022/10/15 08:29:11;;;;;;;1999.90;999.90;;;;;;;12.84;100.00;97971.13;4964776;28;20042;-76
2022/10/15 08:31:38;;;;;;;1999.90;999.90;;;;;;;12.92;100.00;97977.81;4976222;28;20065;-76
2022/10/15 08:34:03;;;;;;;1999.90;999.90;;;;;;;12.92;100.00;97977.81;4976683;28;20050;-77
2022/10/15 08:36:29;;;;;;;1999.90;999.90;;;;;;;12.98;100.00;97977.38;4973765;28;20022;-77
2022/10/15 08:38:54;;;;;;;1999.90;999.90;;;;;;;13.19;100.00;97975.81;4978184;28;20481;-75
2022/10/15 08:41:41;;;;;;;1999.90;999.90;;;;;;;13.30;100.00;97984.63;4973214;28;20210;-76
2022/10/15 08:44:33;;;;;;;1999.90;999.90;;;;;;;13.24;100.00;97983.94;4972418;28;20557;-75
2022/10/15 08:47:05;;;;;;;1999.90;999.90;;;;;;;13.22;100.00;97986.16;4977598;28;20204;-75
2022/10/15 08:49:44;;;;;;;1999.90;999.90;;;;;;;13.45;100.00;97984.22;4971888;28;20023;-75
2022/10/15 08:52:43;;;;;;;1999.90;999.90;;;;;;;13.90;100.00;97985.00;4972219;28;20035;-74
2022/10/15 08:55:15;;;;;;;1999.90;999.90;;;;;;;14.41;100.00;97984.41;4975020;28;20539;-74
2022/10/15 08:57:46;;;;;;;1999.90;999.90;;;;;;;14.71;100.00;97986.28;4979187;28;20392;-74
2022/10/15 09:00:22;;;;;;;1999.90;999.90;;;;;;;14.59;100.00;97986.09;4983455;28;20093;-75
2022/10/15 09:03:01;;;;;;;1999.90;999.90;;;;;;;14.69;100.00;97988.53;4971979;28;20450;-74
2022/10/15 09:05:51;;;;;;;1999.90;999.90;;;;;;;14.58;100.00;97984.47;4977558;28;20027;-75
2022/10/15 09:08:19;;;;;;;1999.90;999.90;;;;;;;14.21;100.00;97984.97;4979547;28;20374;-73
2022/10/15 09:10:56;;;;;;;1999.90;999.90;;;;;;;14.62;100.00;97990.97;4980956;28;20476;-74
2022/10/15 09:13:47;;;;;;;1999.90;999.90;;;;;;;14.92;100.00;97980.94;4981464;28;20022;-75
2022/10/15 09:16:26;;;;;;;1999.90;999.90;;;;;;;14.98;100.00;97976.91;4980102;28;20125;-74
2022/10/15 09:18:53;;;;;;;1999.90;999.90;;;;;;;15.05;100.00;97976.41;4981302;28;20031;-74
2022/10/15 09:21:24;;;;;;;1999.90;999.90;;;;;;;14.98;100.00;97983.22;4980864;28;20037;-74
2022/10/15 09:23:50;;;;;;;1999.90;999.90;;;;;;;15.18;100.00;97984.53;4973430;28;20022;-75
2022/10/15 09:26:39;;;;;;;1999.90;999.90;;;;;;;15.34;100.00;97985.66;4974804;28;20100;-74
2022/10/15 09:29:26;;;;;;;1999.90;999.90;;;;;;;15.44;100.00;97990.81;4978783;28;20088;-74
2022/10/15 09:31:54;;;;;;;1999.90;999.90;;;;;;;15.44;100.00;97984.53;4980413;28;20564;-72
2022/10/15 09:34:28;;;;;;;1999.90;999.90;;;;;;;15.19;100.00;97983.38;4978124;28;20026;-73
2022/10/15 09:36:58;;;;;;;1999.90;999.90;;;;;;;15.13;100.00;97981.13;4959546;28;20073;-75
2022/10/15 09:39:35;;;;;;;1999.90;999.90;;;;;;;15.29;100.00;97983.06;4970832;28;20563;-74
2022/10/15 09:42:22;;;;;;;1999.90;999.90;;;;;;;16.01;100.00;97987.81;4953678;28;20039;-74
2022/10/15 09:44:50;;;;;;;1999.90;999.90;;;;;;;17.19;100.00;97999.72;4950300;28;20034;-74
2022/10/15 09:47:30;;;;;;;1999.90;999.90;;;;;;;17.26;100.00;97995.25;4970530;28;20440;-73
2022/10/15 09:49:55;;;;;;;1999.90;999.90;;;;;;;16.36;100.00;97971.94;4960078;28;20058;-80
2022/10/15 09:52:29;;;;;;;1999.90;999.90;;;;;;;16.07;100.00;97986.50;4965805;28;20039;-78
2022/10/15 09:55:28;;;;;;;1999.90;999.90;;;;;;;15.91;100.00;97982.69;4962713;28;20054;-73
2022/10/15 09:57:58;;;;;;;1999.90;999.90;;;;;;;15.74;100.00;97971.69;4955100;28;20023;-71
2022/10/15 10:00:23;;;;;;;1999.90;999.90;;;;;;;15.77;100.00;97980.09;4977378;28;20038;-71
2022/10/15 10:03:12;;;;;;;1999.90;999.90;;;;;;;16.27;100.00;97990.47;4972759;28;20026;-71
2022/10/15 10:05:38;;;;;;;1999.90;999.90;;;;;;;16.49;100.00;97988.28;4970073;28;20034;-70
2022/10/15 10:08:20;;;;;;;1999.90;999.90;;;;;;;16.77;100.00;97988.63;4971750;28;20039;-71
2022/10/15 10:11:02;;;;;;;1999.90;999.90;;;;;;;17.11;100.00;97985.63;4971931;28;20034;-71
2022/10/15 10:13:45;;;;;;;1999.90;999.90;;;;;;;17.07;100.00;97986.66;4971608;28;20122;-71
2022/10/15 10:16:12;;;;;;;1999.90;999.90;;;;;;;17.11;100.00;97988.38;4971613;28;20039;-71
2022/10/15 10:18:38;;;;;;;1999.90;999.90;;;;;;;16.96;100.00;97980.69;4970961;28;20439;-72
2022/10/15 10:21:19;;;;;;;1999.90;999.90;;;;;;;16.86;100.00;97981.09;4973233;28;20038;-73
2022/10/15 10:23:44;;;;;;;1999.90;999.90;;;;;;;16.82;100.00;97977.38;4975949;28;20030;-73
2022/10/15 10:26:10;;;;;;;1999.90;999.90;;;;;;;16.73;100.00;97981.34;4971859;28;20034;-73
2022/10/15 10:28:47;;;;;;;1999.90;999.90;;;;;;;16.86;100.00;97991.31;4974627;28;20488;-73
2022/10/15 10:31:13;;;;;;;1999.90;999.90;;;;;;;16.73;100.00;97998.72;4976440;28;20488;-72
2022/10/15 10:33:38;;;;;;;1999.90;999.90;;;;;;;16.91;100.00;97994.72;4968985;28;20073;-72
2022/10/15 10:36:06;;;;;;;1999.90;999.90;;;;;;;16.96;100.00;97983.47;4970457;28;20053;-73
2022/10/15 10:38:38;;;;;;;1999.90;999.90;;;;;;;17.10;100.00;97989.53;4970485;28;20033;-74
2022/10/15 10:41:10;;;;;;;1999.90;999.90;;;;;;;17.20;100.00;97979.22;4972361;28;20019;-74
2022/10/15 10:43:52;;;;;;;1999.90;999.90;;;;;;;17.18;100.00;97981.50;4970900;28;20465;-73
2022/10/15 10:46:20;;;;;;;1999.90;999.90;;;;;;;16.97;100.00;97987.84;4970323;28;20077;-74
2022/10/15 10:48:51;;;;;;;1999.90;999.90;;;;;;;16.93;100.00;97989.66;4971095;28;20026;-71
2022/10/15 10:51:19;;;;;;;1999.90;999.90;;;;;;;16.62;100.00;97980.91;4971256;28;20049;-74
2022/10/15 10:53:53;;;;;;;1999.90;999.90;;;;;;;16.94;100.00;97983.00;4969162;28;20361;-75
2022/10/15 10:56:26;;;;;;;1999.90;999.90;;;;;;;16.79;100.00;97967.00;4974626;28;20034;-77